sensor_id;sensor_type;location;lat;lon;timestamp;P1;durP1;ratioP1;P2;durP2;ratioP2
68812;SDS011;55808;48.112;11.552;2022-11-04T00:01:54;196.30;;;108.27;;
68812;SDS011;55808;48.112;11.552;2022-11-04T00:04:21;197.17;;;109.33;;
68812;SDS011;55808;48.112;11.552;2022-11-04T00:06:51;193.17;;;107.17;;
68812;SDS011;55808;48.112;11.552;2022-11-04T00:09:18;202.10;;;108.60;;
68812;SDS011;55808;48.112;11.552;2022-11-04T00:11:46;182.50;;;105.67;;
68812;SDS011;55808;48.112;11.552;2022-11-04T00:14:31;177.27;;;104.37;;
68812;SDS011;55808;48.112;11.552;2022-11-04T00:16:57;182.37;;;104.03;;
68812;SDS011;55808;48.112;11.552;2022-11-04T00:19:42;175.50;;;103.87;;
68812;SDS011;55808;48.112;11.552;2022-11-04T00:22:27;178.03;;;103.80;;
68812;SDS011;55808;48.112;11.552;2022-11-04T00:25:11;177.60;;;104.23;;
68812;SDS011;55808;48.112;11.552;2022-11-04T00:30:58;198.83;;;109.70;;
68812;SDS011;55808;48.112;11.552;2022-11-04T00:33:43;195.87;;;106.70;;
68812;SDS011;55808;48.112;11.552;2022-11-04T00:36:10;193.80;;;107.03;;
68812;SDS011;55808;48.112;11.552;2022-11-04T00:38:35;180.17;;;103.20;;
68812;SDS011;55808;48.112;11.552;2022-11-04T00:41:02;186.13;;;106.40;;
68812;SDS011;55808;48.112;11.552;2022-11-04T00:43:48;184.37;;;103.33;;
68812;SDS011;55808;48.112;11.552;2022-11-04T00:46:13;171.13;;;102.23;;
68812;SDS011;55808;48.112;11.552;2022-11-04T00:48:39;146.97;;;96.87;;
68812;SDS011;55808;48.112;11.552;2022-11-04T00:51:04;128.63;;;93.10;;
68812;SDS011;55808;48.112;11.552;2022-11-04T00:53:30;112.33;;;90.67;;
68812;SDS011;55808;48.112;11.552;2022-11-04T00:55:57;148.23;;;97.73;;
68812;SDS011;55808;48.112;11.552;2022-11-04T00:58:23;159.20;;;99.00;;
68812;SDS011;55808;48.112;11.552;2022-11-04T01:00:49;140.73;;;95.90;;
68812;SDS011;55808;48.112;11.552;2022-11-04T01:03:14;168.27;;;100.37;;
68812;SDS011;55808;48.112;11.552;2022-11-04T01:05:40;151.90;;;97.00;;
68812;SDS011;55808;48.112;11.552;2022-11-04T01:08:07;158.93;;;98.77;;
68812;SDS011;55808;48.112;11.552;2022-11-04T01:10:34;161.73;;;97.70;;
68812;SDS011;55808;48.112;11.552;2022-11-04T01:13:00;164.45;;;98.80;;
68812;SDS011;55808;48.112;11.552;2022-11-04T01:15:26;180.60;;;102.23;;
68812;SDS011;55808;48.112;11.552;2022-11-04T01:17:52;160.00;;;99.20;;
68812;SDS011;55808;48.112;11.552;2022-11-04T01:20:17;174.33;;;100.63;;
68812;SDS011;55808;48.112;11.552;2022-11-04T01:22:43;176.87;;;100.33;;
68812;SDS011;55808;48.112;11.552;2022-11-04T01:25:08;167.87;;;99.83;;
68812;SDS011;55808;48.112;11.552;2022-11-04T01:27:34;143.23;;;94.90;;
68812;SDS011;55808;48.112;11.552;2022-11-04T01:30:00;159.30;;;98.83;;
68812;SDS011;55808;48.112;11.552;2022-11-04T01:32:26;158.67;;;97.47;;
68812;SDS011;55808;48.112;11.552;2022-11-04T01:34:52;178.77;;;100.95;;
68812;SDS011;55808;48.112;11.552;2022-11-04T01:37:18;152.23;;;96.50;;
68812;SDS011;55808;48.112;11.552;2022-11-04T01:39:43;152.60;;;96.80;;
68812;SDS011;55808;48.112;11.552;2022-11-04T01:42:11;163.07;;;97.20;;
68812;SDS011;55808;48.112;11.552;2022-11-04T01:49:45;155.25;;;97.40;;
68812;SDS011;55808;48.112;11.552;2022-11-04T01:52:16;145.15;;;95.03;;
68812;SDS011;55808;48.112;11.552;2022-11-04T01:54:49;148.65;;;95.63;;
68812;SDS011;55808;48.112;11.552;2022-11-04T01:57:18;149.18;;;95.85;;
68812;SDS011;55808;48.112;11.552;2022-11-04T01:59:53;148.55;;;95.10;;
68812;SDS011;55808;48.112;11.552;2022-11-04T02:02:22;147.68;;;95.38;;
68812;SDS011;55808;48.112;11.552;2022-11-04T02:04:47;158.20;;;96.87;;
68812;SDS011;55808;48.112;11.552;2022-11-04T02:07:13;151.93;;;95.57;;
68812;SDS011;55808;48.112;11.552;2022-11-04T02:09:39;154.23;;;96.57;;
68812;SDS011;55808;48.112;11.552;2022-11-04T02:12:06;156.73;;;97.78;;
68812;SDS011;55808;48.112;11.552;2022-11-04T02:14:52;152.65;;;95.40;;
68812;SDS011;55808;48.112;11.552;2022-11-04T02:20:30;152.43;;;94.75;;
68812;SDS011;55808;48.112;11.552;2022-11-04T02:34:14;142.50;;;93.17;;
68812;SDS011;55808;48.112;11.552;2022-11-04T02:44:42;159.85;;;96.80;;
68812;SDS011;55808;48.112;11.552;2022-11-04T02:47:18;169.10;;;98.57;;
68812;SDS011;55808;48.112;11.552;2022-11-04T02:49:54;144.15;;;93.68;;
68812;SDS011;55808;48.112;11.552;2022-11-04T02:52:26;144.80;;;93.85;;
68812;SDS011;55808;48.112;11.552;2022-11-04T02:54:59;153.38;;;94.80;;
68812;SDS011;55808;48.112;11.552;2022-11-04T02:57:32;161.55;;;96.88;;
68812;SDS011;55808;48.112;11.552;2022-11-04T03:00:05;158.48;;;96.65;;
68812;SDS011;55808;48.112;11.552;2022-11-04T03:02:39;160.52;;;98.18;;
68812;SDS011;55808;48.112;11.552;2022-11-04T03:05:13;171.90;;;98.32;;
68812;SDS011;55808;48.112;11.552;2022-11-04T03:07:43;160.52;;;97.00;;
68812;SDS011;55808;48.112;11.552;2022-11-04T03:10:16;169.88;;;97.75;;
68812;SDS011;55808;48.112;11.552;2022-11-04T03:12:53;166.77;;;100.68;;
68812;SDS011;55808;48.112;11.552;2022-11-04T03:15:23;157.35;;;95.68;;
68812;SDS011;55808;48.112;11.552;2022-11-04T03:17:55;157.68;;;95.60;;
68812;SDS011;55808;48.112;11.552;2022-11-04T03:20:37;190.20;;;101.72;;
68812;SDS011;55808;48.112;11.552;2022-11-04T03:23:06;190.07;;;101.80;;
68812;SDS011;55808;48.112;11.552;2022-11-04T03:25:35;171.00;;;98.18;;
68812;SDS011;55808;48.112;11.552;2022-11-04T03:28:29;194.43;;;103.28;;
68812;SDS011;55808;48.112;11.552;2022-11-04T03:31:06;158.50;;;95.95;;
68812;SDS011;55808;48.112;11.552;2022-11-04T03:33:42;204.10;;;103.60;;
68812;SDS011;55808;48.112;11.552;2022-11-04T03:36:12;160.77;;;96.53;;
68812;SDS011;55808;48.112;11.552;2022-11-04T03:38:38;172.43;;;99.18;;
68812;SDS011;55808;48.112;11.552;2022-11-04T03:41:06;185.10;;;100.83;;
68812;SDS011;55808;48.112;11.552;2022-11-04T03:43:41;177.88;;;100.03;;
68812;SDS011;55808;48.112;11.552;2022-11-04T03:46:07;188.20;;;101.63;;
68812;SDS011;55808;48.112;11.552;2022-11-04T03:48:33;172.18;;;99.30;;
68812;SDS011;55808;48.112;11.552;2022-11-04T03:50:59;182.23;;;100.57;;
68812;SDS011;55808;48.112;11.552;2022-11-04T03:53:25;166.33;;;98.13;;
68812;SDS011;55808;48.112;11.552;2022-11-04T03:56:15;159.05;;;95.53;;
68812;SDS011;55808;48.112;11.552;2022-11-04T04:01:40;150.70;;;94.03;;
68812;SDS011;55808;48.112;11.552;2022-11-04T04:06:38;153.53;;;96.20;;
68812;SDS011;55808;48.112;11.552;2022-11-04T04:09:20;163.77;;;97.95;;
68812;SDS011;55808;48.112;11.552;2022-11-04T04:12:32;149.65;;;94.43;;
68812;SDS011;55808;48.112;11.552;2022-11-04T04:14:51;140.43;;;93.22;;
68812;SDS011;55808;48.112;11.552;2022-11-04T04:17:31;158.90;;;96.25;;
68812;SDS011;55808;48.112;11.552;2022-11-04T04:22:36;181.80;;;100.57;;
68812;SDS011;55808;48.112;11.552;2022-11-04T04:25:07;163.93;;;97.75;;
68812;SDS011;55808;48.112;11.552;2022-11-04T04:27:55;166.15;;;98.28;;
68812;SDS011;55808;48.112;11.552;2022-11-04T04:30:23;138.85;;;92.82;;
68812;SDS011;55808;48.112;11.552;2022-11-04T04:35:26;178.52;;;99.60;;
68812;SDS011;55808;48.112;11.552;2022-11-04T04:38:06;180.77;;;100.25;;
68812;SDS011;55808;48.112;11.552;2022-11-04T04:41:31;154.93;;;96.20;;
68812;SDS011;55808;48.112;11.552;2022-11-04T04:44:12;155.23;;;95.60;;
68812;SDS011;55808;48.112;11.552;2022-11-04T04:47:10;149.50;;;94.75;;
68812;SDS011;55808;48.112;11.552;2022-11-04T04:49:53;169.25;;;98.22;;
68812;SDS011;55808;48.112;11.552;2022-11-04T04:52:22;161.13;;;95.43;;
68812;SDS011;55808;48.112;11.552;2022-11-04T04:54:50;177.32;;;99.35;;
68812;SDS011;55808;48.112;11.552;2022-11-04T04:57:15;164.43;;;97.73;;
68812;SDS011;55808;48.112;11.552;2022-11-04T04:59:41;175.03;;;99.27;;
68812;SDS011;55808;48.112;11.552;2022-11-04T05:02:07;172.20;;;98.67;;
68812;SDS011;55808;48.112;11.552;2022-11-04T05:04:32;164.43;;;98.30;;
68812;SDS011;55808;48.112;11.552;2022-11-04T05:06:58;170.60;;;98.47;;
68812;SDS011;55808;48.112;11.552;2022-11-04T05:09:24;168.07;;;97.63;;
68812;SDS011;55808;48.112;11.552;2022-11-04T05:11:49;168.23;;;98.07;;
68812;SDS011;55808;48.112;11.552;2022-11-04T05:14:15;160.87;;;97.00;;
68812;SDS011;55808;48.112;11.552;2022-11-04T05:16:41;165.37;;;96.87;;
68812;SDS011;55808;48.112;11.552;2022-11-04T05:19:06;172.33;;;99.50;;
68812;SDS011;55808;48.112;11.552;2022-11-04T05:21:32;168.60;;;98.20;;
68812;SDS011;55808;48.112;11.552;2022-11-04T05:23:58;147.83;;;94.97;;
68812;SDS011;55808;48.112;11.552;2022-11-04T05:26:23;172.03;;;99.37;;
68812;SDS011;55808;48.112;11.552;2022-11-04T05:28:49;154.73;;;95.27;;
68812;SDS011;55808;48.112;11.552;2022-11-04T05:31:14;175.43;;;99.07;;
68812;SDS011;55808;48.112;11.552;2022-11-04T05:33:40;175.77;;;100.20;;
68812;SDS011;55808;48.112;11.552;2022-11-04T05:38:33;203.40;;;103.93;;
68812;SDS011;55808;48.112;11.552;2022-11-04T05:40:58;155.40;;;95.60;;
68812;SDS011;55808;48.112;11.552;2022-11-04T05:43:24;152.20;;;94.37;;
68812;SDS011;55808;48.112;11.552;2022-11-04T05:45:49;177.17;;;99.27;;
68812;SDS011;55808;48.112;11.552;2022-11-04T05:48:15;183.30;;;99.97;;
68812;SDS011;55808;48.112;11.552;2022-11-04T05:50:41;183.73;;;99.60;;
68812;SDS011;55808;48.112;11.552;2022-11-04T05:53:06;188.77;;;101.30;;
68812;SDS011;55808;48.112;11.552;2022-11-04T05:55:32;173.20;;;98.43;;
68812;SDS011;55808;48.112;11.552;2022-11-04T05:57:58;201.17;;;103.93;;
68812;SDS011;55808;48.112;11.552;2022-11-04T06:00:26;177.70;;;98.07;;
68812;SDS011;55808;48.112;11.552;2022-11-04T06:02:52;158.35;;;95.50;;
68812;SDS011;55808;48.112;11.552;2022-11-04T06:05:21;182.07;;;100.80;;
68812;SDS011;55808;48.112;11.552;2022-11-04T06:07:47;181.23;;;99.78;;
68812;SDS011;55808;48.112;11.552;2022-11-04T06:10:13;181.67;;;100.00;;
68812;SDS011;55808;48.112;11.552;2022-11-04T06:12:38;178.50;;;99.27;;
68812;SDS011;55808;48.112;11.552;2022-11-04T06:15:04;182.63;;;100.37;;
68812;SDS011;55808;48.112;11.552;2022-11-04T06:17:31;210.95;;;105.72;;
68812;SDS011;55808;48.112;11.552;2022-11-04T06:19:57;181.03;;;98.70;;
68812;SDS011;55808;48.112;11.552;2022-11-04T06:22:22;172.40;;;98.93;;
68812;SDS011;55808;48.112;11.552;2022-11-04T06:24:48;158.27;;;96.30;;
68812;SDS011;55808;48.112;11.552;2022-11-04T06:27:14;179.53;;;100.33;;
68812;SDS011;55808;48.112;11.552;2022-11-04T06:29:39;163.67;;;98.87;;
68812;SDS011;55808;48.112;11.552;2022-11-04T06:32:09;152.03;;;95.00;;
68812;SDS011;55808;48.112;11.552;2022-11-04T06:34:37;170.40;;;97.75;;
68812;SDS011;55808;48.112;11.552;2022-11-04T06:37:03;185.93;;;100.80;;
68812;SDS011;55808;48.112;11.552;2022-11-04T06:39:29;157.68;;;96.38;;
68812;SDS011;55808;48.112;11.552;2022-11-04T06:41:54;177.33;;;95.57;;
68812;SDS011;55808;48.112;11.552;2022-11-04T06:44:20;161.80;;;97.10;;
68812;SDS011;55808;48.112;11.552;2022-11-04T06:46:46;167.27;;;98.43;;
68812;SDS011;55808;48.112;11.552;2022-11-04T06:49:16;184.23;;;100.60;;
68812;SDS011;55808;48.112;11.552;2022-11-04T06:51:44;170.93;;;98.97;;
68812;SDS011;55808;48.112;11.552;2022-11-04T06:54:10;166.02;;;97.20;;
68812;SDS011;55808;48.112;11.552;2022-11-04T06:56:37;175.93;;;99.70;;
68812;SDS011;55808;48.112;11.552;2022-11-04T06:59:03;170.38;;;98.55;;
68812;SDS011;55808;48.112;11.552;2022-11-04T07:01:29;232.07;;;108.60;;
68812;SDS011;55808;48.112;11.552;2022-11-04T07:03:58;187.38;;;102.13;;
68812;SDS011;55808;48.112;11.552;2022-11-04T07:06:24;117.57;;;86.85;;
68812;SDS011;55808;48.112;11.552;2022-11-04T07:08:51;97.55;;;82.57;;
68812;SDS011;55808;48.112;11.552;2022-11-04T07:11:18;103.30;;;84.70;;
68812;SDS011;55808;48.112;11.552;2022-11-04T07:13:46;117.45;;;88.05;;
68812;SDS011;55808;48.112;11.552;2022-11-04T07:16:12;116.10;;;87.47;;
68812;SDS011;55808;48.112;11.552;2022-11-04T07:18:39;108.65;;;85.82;;
68812;SDS011;55808;48.112;11.552;2022-11-04T07:21:05;112.00;;;86.40;;
68812;SDS011;55808;48.112;11.552;2022-11-04T07:23:31;115.30;;;87.68;;
68812;SDS011;55808;48.112;11.552;2022-11-04T07:26:03;131.90;;;91.20;;
68812;SDS011;55808;48.112;11.552;2022-11-04T07:28:31;142.50;;;94.05;;
68812;SDS011;55808;48.112;11.552;2022-11-04T07:30:58;150.27;;;94.65;;
68812;SDS011;55808;48.112;11.552;2022-11-04T07:33:25;141.27;;;93.03;;
68812;SDS011;55808;48.112;11.552;2022-11-04T07:35:51;156.20;;;94.63;;
68812;SDS011;55808;48.112;11.552;2022-11-04T07:38:19;147.35;;;93.70;;
68812;SDS011;55808;48.112;11.552;2022-11-04T07:40:45;150.38;;;93.53;;
68812;SDS011;55808;48.112;11.552;2022-11-04T07:43:12;196.65;;;101.00;;
68812;SDS011;55808;48.112;11.552;2022-11-04T07:45:38;163.80;;;96.85;;
68812;SDS011;55808;48.112;11.552;2022-11-04T07:48:04;199.17;;;103.90;;
68812;SDS011;55808;48.112;11.552;2022-11-04T07:50:29;188.40;;;100.30;;
68812;SDS011;55808;48.112;11.552;2022-11-04T07:52:55;190.30;;;100.57;;
68812;SDS011;55808;48.112;11.552;2022-11-04T07:55:21;204.03;;;103.30;;
68812;SDS011;55808;48.112;11.552;2022-11-04T07:57:47;204.57;;;103.90;;
68812;SDS011;55808;48.112;11.552;2022-11-04T08:00:13;198.05;;;102.75;;
68812;SDS011;55808;48.112;11.552;2022-11-04T08:02:43;209.73;;;102.82;;
68812;SDS011;55808;48.112;11.552;2022-11-04T08:05:10;200.05;;;102.72;;
68812;SDS011;55808;48.112;11.552;2022-11-04T08:07:40;217.10;;;106.00;;
68812;SDS011;55808;48.112;11.552;2022-11-04T08:10:06;217.47;;;104.53;;
68812;SDS011;55808;48.112;11.552;2022-11-04T08:12:32;197.93;;;101.75;;
68812;SDS011;55808;48.112;11.552;2022-11-04T08:14:58;190.80;;;102.07;;
68812;SDS011;55808;48.112;11.552;2022-11-04T08:17:24;220.23;;;106.30;;
68812;SDS011;55808;48.112;11.552;2022-11-04T08:19:50;202.63;;;104.20;;
68812;SDS011;55808;48.112;11.552;2022-11-04T08:22:16;222.43;;;107.03;;
68812;SDS011;55808;48.112;11.552;2022-11-04T08:24:41;209.97;;;104.27;;
68812;SDS011;55808;48.112;11.552;2022-11-04T08:27:07;222.27;;;104.43;;
68812;SDS011;55808;48.112;11.552;2022-11-04T08:29:34;225.23;;;107.10;;
68812;SDS011;55808;48.112;11.552;2022-11-04T08:32:00;225.93;;;106.70;;
68812;SDS011;55808;48.112;11.552;2022-11-04T08:34:26;241.43;;;105.00;;
68812;SDS011;55808;48.112;11.552;2022-11-04T08:36:52;210.97;;;101.90;;
68812;SDS011;55808;48.112;11.552;2022-11-04T08:39:29;192.48;;;102.88;;
68812;SDS011;55808;48.112;11.552;2022-11-04T08:41:55;182.07;;;100.10;;
68812;SDS011;55808;48.112;11.552;2022-11-04T08:44:20;192.80;;;103.00;;
68812;SDS011;55808;48.112;11.552;2022-11-04T08:46:48;182.23;;;99.80;;
68812;SDS011;55808;48.112;11.552;2022-11-04T08:49:13;186.40;;;100.87;;
68812;SDS011;55808;48.112;11.552;2022-11-04T08:51:41;218.40;;;106.73;;
68812;SDS011;55808;48.112;11.552;2022-11-04T08:54:08;190.00;;;102.28;;
68812;SDS011;55808;48.112;11.552;2022-11-04T08:56:35;183.77;;;99.68;;
68812;SDS011;55808;48.112;11.552;2022-11-04T08:59:03;195.18;;;101.30;;
68812;SDS011;55808;48.112;11.552;2022-11-04T09:01:30;194.95;;;101.50;;
68812;SDS011;55808;48.112;11.552;2022-11-04T09:03:56;197.70;;;102.00;;
68812;SDS011;55808;48.112;11.552;2022-11-04T09:06:33;197.60;;;102.00;;
68812;SDS011;55808;48.112;11.552;2022-11-04T09:09:02;191.88;;;101.50;;
68812;SDS011;55808;48.112;11.552;2022-11-04T09:11:30;182.45;;;99.82;;
68812;SDS011;55808;48.112;11.552;2022-11-04T09:13:58;131.70;;;91.13;;
68812;SDS011;55808;48.112;11.552;2022-11-04T09:16:25;138.10;;;93.00;;
68812;SDS011;55808;48.112;11.552;2022-11-04T09:18:51;129.80;;;91.13;;
68812;SDS011;55808;48.112;11.552;2022-11-04T09:21:16;135.90;;;92.10;;
68812;SDS011;55808;48.112;11.552;2022-11-04T09:23:42;134.43;;;92.37;;
68812;SDS011;55808;48.112;11.552;2022-11-04T09:26:09;156.80;;;96.30;;
68812;SDS011;55808;48.112;11.552;2022-11-04T09:28:36;146.18;;;93.82;;
68812;SDS011;55808;48.112;11.552;2022-11-04T09:31:03;144.47;;;94.93;;
68812;SDS011;55808;48.112;11.552;2022-11-04T09:33:30;193.13;;;102.10;;
68812;SDS011;55808;48.112;11.552;2022-11-04T09:35:57;206.85;;;104.88;;
68812;SDS011;55808;48.112;11.552;2022-11-04T09:38:23;209.70;;;104.33;;
68812;SDS011;55808;48.112;11.552;2022-11-04T09:40:49;175.52;;;99.32;;
68812;SDS011;55808;48.112;11.552;2022-11-04T09:43:24;192.18;;;102.90;;
68812;SDS011;55808;48.112;11.552;2022-11-04T09:45:59;201.48;;;103.18;;
68812;SDS011;55808;48.112;11.552;2022-11-04T09:51:03;224.18;;;109.20;;
68812;SDS011;55808;48.112;11.552;2022-11-04T09:53:40;192.52;;;101.50;;
68812;SDS011;55808;48.112;11.552;2022-11-04T09:56:21;204.23;;;102.55;;
68812;SDS011;55808;48.112;11.552;2022-11-04T09:58:51;297.92;;;119.22;;
68812;SDS011;55808;48.112;11.552;2022-11-04T10:09:18;291.52;;;111.35;;
68812;SDS011;55808;48.112;11.552;2022-11-04T10:12:10;286.40;;;112.72;;
68812;SDS011;55808;48.112;11.552;2022-11-04T10:17:53;288.35;;;118.07;;
68812;SDS011;55808;48.112;11.552;2022-11-04T10:23:21;275.38;;;108.22;;
68812;SDS011;55808;48.112;11.552;2022-11-04T10:25:55;274.88;;;108.65;;
68812;SDS011;55808;48.112;11.552;2022-11-04T10:28:50;287.23;;;111.35;;
68812;SDS011;55808;48.112;11.552;2022-11-04T10:31:19;273.45;;;109.18;;
68812;SDS011;55808;48.112;11.552;2022-11-04T10:33:49;305.73;;;117.07;;
68812;SDS011;55808;48.112;11.552;2022-11-04T10:36:19;280.02;;;110.38;;
68812;SDS011;55808;48.112;11.552;2022-11-04T10:38:53;279.83;;;110.40;;
68812;SDS011;55808;48.112;11.552;2022-11-04T10:43:49;305.33;;;114.40;;
68812;SDS011;55808;48.112;11.552;2022-11-04T10:46:36;316.50;;;116.88;;
68812;SDS011;55808;48.112;11.552;2022-11-04T10:52:12;309.95;;;114.30;;
68812;SDS011;55808;48.112;11.552;2022-11-04T10:54:41;325.95;;;115.22;;
68812;SDS011;55808;48.112;11.552;2022-11-04T10:57:13;318.10;;;114.55;;
68812;SDS011;55808;48.112;11.552;2022-11-04T10:59:51;332.38;;;117.68;;
68812;SDS011;55808;48.112;11.552;2022-11-04T11:07:43;330.50;;;115.70;;
68812;SDS011;55808;48.112;11.552;2022-11-04T11:10:18;306.40;;;113.05;;
68812;SDS011;55808;48.112;11.552;2022-11-04T11:12:54;318.15;;;116.80;;
68812;SDS011;55808;48.112;11.552;2022-11-04T11:15:38;302.75;;;111.88;;
68812;SDS011;55808;48.112;11.552;2022-11-04T11:20:31;301.80;;;111.97;;
68812;SDS011;55808;48.112;11.552;2022-11-04T11:23:01;306.92;;;112.57;;
68812;SDS011;55808;48.112;11.552;2022-11-04T11:25:33;312.80;;;115.43;;
68812;SDS011;55808;48.112;11.552;2022-11-04T11:28:09;317.88;;;115.60;;
68812;SDS011;55808;48.112;11.552;2022-11-04T11:35:54;300.50;;;113.03;;
68812;SDS011;55808;48.112;11.552;2022-11-04T11:38:52;302.17;;;119.95;;
68812;SDS011;55808;48.112;11.552;2022-11-04T11:41:18;273.67;;;111.95;;
68812;SDS011;55808;48.112;11.552;2022-11-04T11:43:51;301.40;;;116.07;;
68812;SDS011;55808;48.112;11.552;2022-11-04T11:46:24;88.93;;;79.50;;
68812;SDS011;55808;48.112;11.552;2022-11-04T11:48:53;90.63;;;80.25;;
68812;SDS011;55808;48.112;11.552;2022-11-04T11:51:34;74.47;;;68.50;;
68812;SDS011;55808;48.112;11.552;2022-11-04T11:54:06;76.50;;;70.30;;
68812;SDS011;55808;48.112;11.552;2022-11-04T11:57:08;76.15;;;69.00;;
68812;SDS011;55808;48.112;11.552;2022-11-04T11:59:47;75.35;;;68.15;;
68812;SDS011;55808;48.112;11.552;2022-11-04T12:05:19;78.38;;;70.80;;
68812;SDS011;55808;48.112;11.552;2022-11-04T12:07:56;78.75;;;70.93;;
68812;SDS011;55808;48.112;11.552;2022-11-04T12:15:24;84.97;;;76.93;;
68812;SDS011;55808;48.112;11.552;2022-11-04T12:18:14;88.38;;;80.18;;
68812;SDS011;55808;48.112;11.552;2022-11-04T12:21:14;85.45;;;77.20;;
68812;SDS011;55808;48.112;11.552;2022-11-04T12:23:56;92.55;;;81.25;;
68812;SDS011;55808;48.112;11.552;2022-11-04T12:40:09;79.63;;;72.15;;
68812;SDS011;55808;48.112;11.552;2022-11-04T12:43:00;78.78;;;72.30;;
68812;SDS011;55808;48.112;11.552;2022-11-04T12:56:21;221.35;;;104.97;;
68812;SDS011;55808;48.112;11.552;2022-11-04T12:59:22;142.85;;;87.25;;
68812;SDS011;55808;48.112;11.552;2022-11-04T13:02:27;108.88;;;82.45;;
68812;SDS011;55808;48.112;11.552;2022-11-04T13:10:20;85.13;;;76.75;;
68812;SDS011;55808;48.112;11.552;2022-11-04T13:12:51;80.63;;;74.22;;
68812;SDS011;55808;48.112;11.552;2022-11-04T13:15:23;96.10;;;85.25;;
68812;SDS011;55808;48.112;11.552;2022-11-04T13:17:56;86.53;;;79.40;;
68812;SDS011;55808;48.112;11.552;2022-11-04T13:20:44;102.75;;;80.95;;
68812;SDS011;55808;48.112;11.552;2022-11-04T13:23:33;80.63;;;73.63;;
68812;SDS011;55808;48.112;11.552;2022-11-04T13:26:03;83.45;;;75.50;;
68812;SDS011;55808;48.112;11.552;2022-11-04T13:28:33;82.78;;;74.55;;
68812;SDS011;55808;48.112;11.552;2022-11-04T13:33:48;81.68;;;73.68;;
68812;SDS011;55808;48.112;11.552;2022-11-04T13:36:27;78.95;;;72.18;;
68812;SDS011;55808;48.112;11.552;2022-11-04T13:47:31;80.68;;;73.50;;
68812;SDS011;55808;48.112;11.552;2022-11-04T13:50:12;81.35;;;73.72;;
68812;SDS011;55808;48.112;11.552;2022-11-04T13:52:52;81.70;;;74.07;;
68812;SDS011;55808;48.112;11.552;2022-11-04T13:55:18;78.63;;;71.67;;
68812;SDS011;55808;48.112;11.552;2022-11-04T13:57:54;79.60;;;72.85;;
68812;SDS011;55808;48.112;11.552;2022-11-04T14:00:27;80.10;;;73.45;;
68812;SDS011;55808;48.112;11.552;2022-11-04T14:02:57;83.38;;;75.97;;
68812;SDS011;55808;48.112;11.552;2022-11-04T14:16:02;82.80;;;74.93;;
68812;SDS011;55808;48.112;11.552;2022-11-04T14:21:12;88.07;;;78.70;;
68812;SDS011;55808;48.112;11.552;2022-11-04T14:23:49;107.80;;;84.65;;
68812;SDS011;55808;48.112;11.552;2022-11-04T14:26:18;88.20;;;79.40;;
68812;SDS011;55808;48.112;11.552;2022-11-04T14:28:47;88.22;;;79.05;;
68812;SDS011;55808;48.112;11.552;2022-11-04T14:31:36;85.88;;;77.90;;
68812;SDS011;55808;48.112;11.552;2022-11-04T14:34:03;85.97;;;77.80;;
68812;SDS011;55808;48.112;11.552;2022-11-04T14:36:31;85.22;;;76.95;;
68812;SDS011;55808;48.112;11.552;2022-11-04T14:41:50;86.95;;;78.45;;
68812;SDS011;55808;48.112;11.552;2022-11-04T14:46:51;89.00;;;80.40;;
68812;SDS011;55808;48.112;11.552;2022-11-04T14:51:53;115.28;;;88.00;;
68812;SDS011;55808;48.112;11.552;2022-11-04T14:54:22;121.07;;;94.45;;
68812;SDS011;55808;48.112;11.552;2022-11-04T14:56:50;125.80;;;89.13;;
68812;SDS011;55808;48.112;11.552;2022-11-04T14:59:20;106.75;;;86.53;;
68812;SDS011;55808;48.112;11.552;2022-11-04T15:01:51;105.22;;;85.90;;
68812;SDS011;55808;48.112;11.552;2022-11-04T15:04:25;103.97;;;84.80;;
68812;SDS011;55808;48.112;11.552;2022-11-04T15:06:56;103.82;;;85.68;;
68812;SDS011;55808;48.112;11.552;2022-11-04T15:09:47;106.90;;;85.90;;
68812;SDS011;55808;48.112;11.552;2022-11-04T15:12:15;111.03;;;86.88;;
68812;SDS011;55808;48.112;11.552;2022-11-04T15:15:04;103.57;;;85.38;;
68812;SDS011;55808;48.112;11.552;2022-11-04T15:17:53;100.80;;;84.50;;
68812;SDS011;55808;48.112;11.552;2022-11-04T15:20:26;123.40;;;89.70;;
68812;SDS011;55808;48.112;11.552;2022-11-04T15:22:57;130.65;;;89.40;;
68812;SDS011;55808;48.112;11.552;2022-11-04T15:25:26;120.78;;;88.30;;
68812;SDS011;55808;48.112;11.552;2022-11-04T15:27:53;121.68;;;88.20;;
68812;SDS011;55808;48.112;11.552;2022-11-04T15:30:21;116.97;;;88.15;;
68812;SDS011;55808;48.112;11.552;2022-11-04T15:32:58;128.30;;;93.70;;
68812;SDS011;55808;48.112;11.552;2022-11-04T15:35:28;130.88;;;91.65;;
68812;SDS011;55808;48.112;11.552;2022-11-04T15:37:56;130.63;;;89.78;;
68812;SDS011;55808;48.112;11.552;2022-11-04T15:40:25;120.32;;;88.35;;
68812;SDS011;55808;48.112;11.552;2022-11-04T15:42:53;116.15;;;87.75;;
68812;SDS011;55808;48.112;11.552;2022-11-04T15:45:34;108.80;;;86.25;;
68812;SDS011;55808;48.112;11.552;2022-11-04T15:53:37;119.18;;;88.45;;
68812;SDS011;55808;48.112;11.552;2022-11-04T15:56:28;121.32;;;89.00;;
68812;SDS011;55808;48.112;11.552;2022-11-04T15:58:57;105.80;;;85.00;;
68812;SDS011;55808;48.112;11.552;2022-11-04T16:01:24;110.82;;;86.28;;
68812;SDS011;55808;48.112;11.552;2022-11-04T16:03:56;117.80;;;87.85;;
68812;SDS011;55808;48.112;11.552;2022-11-04T16:06:37;111.45;;;86.47;;
68812;SDS011;55808;48.112;11.552;2022-11-04T16:09:17;116.90;;;86.97;;
68812;SDS011;55808;48.112;11.552;2022-11-04T16:14:50;381.48;;;211.65;;
68812;SDS011;55808;48.112;11.552;2022-11-04T16:17:18;335.30;;;117.07;;
68812;SDS011;55808;48.112;11.552;2022-11-04T16:19:45;278.90;;;108.05;;
68812;SDS011;55808;48.112;11.552;2022-11-04T16:22:18;263.23;;;108.40;;
68812;SDS011;55808;48.112;11.552;2022-11-04T16:24:50;232.07;;;105.38;;
68812;SDS011;55808;48.112;11.552;2022-11-04T16:27:18;210.05;;;99.13;;
68812;SDS011;55808;48.112;11.552;2022-11-04T16:29:53;141.05;;;92.90;;
68812;SDS011;55808;48.112;11.552;2022-11-04T16:32:26;164.50;;;94.78;;
68812;SDS011;55808;48.112;11.552;2022-11-04T16:34:58;159.35;;;94.35;;
68812;SDS011;55808;48.112;11.552;2022-11-04T16:37:29;166.90;;;97.18;;
68812;SDS011;55808;48.112;11.552;2022-11-04T16:39:56;13.23;;;12.40;;
68812;SDS011;55808;48.112;11.552;2022-11-04T16:42:22;261.53;;;106.57;;
68812;SDS011;55808;48.112;11.552;2022-11-04T16:44:51;263.40;;;106.67;;
68812;SDS011;55808;48.112;11.552;2022-11-04T16:47:22;277.50;;;108.00;;
68812;SDS011;55808;48.112;11.552;2022-11-04T16:49:49;255.65;;;105.20;;
68812;SDS011;55808;48.112;11.552;2022-11-04T16:52:17;291.03;;;112.63;;
68812;SDS011;55808;48.112;11.552;2022-11-04T16:54:47;257.63;;;105.90;;